CheckWX is a tool to help pilots better visualize weather data.  It is not intended as a substitute for an official pre-flight weather briefing.

07:18:47 UTC

ZUCK TAF
Chongqing Jiangbei International Airport
Chongqing, China
TAF ZUCK 190307Z 1906/2006 03003MPS 5000 BR SCT020 TX28/1908Z TN24/1922Z TEMPO 1920/2002 3000 -SHRA BR

Jun-19@
06:00 UTC

Jun-19 @ 06:00 UTC

Jun-20@
06:00 UTC

Jun-20 @ 06:00 UTC

TAF ZUCK 190307Z 1906/2006 03003MPS 5000 BR SCT020 TX28/1908Z TN24/1922Z
Wind
  • 030° at 6 KTS
Conditions
Mist
Cloud Levels
  • Scattered at 2,000' AGL

Jun-19@
20:00 UTC

Jun-19 @ 20:00 UTC

Jun-20@
02:00 UTC

Jun-20 @ 02:00 UTC

TEMPO 1920/2002 3000 -SHRA BR

Temporary

Temporary Changes expected for less than half the time period

Conditions
Light Rain, Mist